Falfurrias, Texas
Current Conditions -  °F | °C
As of 3:35 PM on Friday 28 Nov 2014 (Local Time) from KBKS Reporting Station
Clear Clear  
Wind Chill: 77°   Ceiling: Unl
Heat Index: 78°   Visibility: 10mi
Dew Point: 52°   Wind: 13mph
Humidity: 41%   Direction: 150°SSE
Pressure: 30.13"   Gusts: 18mph
Location:  27.23°N, 98.14°W
Report Text: KBKS 282135Z AUTO 15011G16KT 10SM CLR 25/11 A3013 RMK AO1 T02510111
Loading
Personal Weather Stations






























Interactive Weather Map New forecast layout! Learn more

10-Day Weather Forecast

Advertisements
Track Severe Weather on mobile